Terminal Aerodrome Forecast
Issued by NWS

Home | Current Version | Previous Version | Graphics & Text | Print | Product List | Glossary On
Versions: 1 2 3 4 5 6 7 8 9 10 11 12 13 14 15 16 17 18 19 20 21
000
FTUS43 KOAX 152320
TAFCDR
TAF
KCDR 152320Z 1600/1624 33014G26KT P6SM OVC090
      TEMPO 1600/1602 5SM -SN OVC025
     FM160200 27007KT P6SM OVC035
     FM161000 27007KT 1SM BR OVC015
     FM161500 13005KT P6SM OVC035
     FM162000 14008KT P6SM BKN060=

USA.gov is the U.S. government's official web portal to all federal, state and local government web resources and services.